sensor_id;sensor_type;location;lat;lon;timestamp;temperature;humidity
39219;DHT22;24934;52.752;6.964;2022-11-21T00:00:49;-0.30;99.90
39219;DHT22;24934;52.752;6.964;2022-11-21T00:03:14;-0.20;99.90
39219;DHT22;24934;52.752;6.964;2022-11-21T00:05:42;-0.20;99.90
39219;DHT22;24934;52.752;6.964;2022-11-21T00:08:13;-0.10;99.90
39219;DHT22;24934;52.752;6.964;2022-11-21T00:10:40;-0.10;99.90
39219;DHT22;24934;52.752;6.964;2022-11-21T00:13:11;0.00;99.90
39219;DHT22;24934;52.752;6.964;2022-11-21T00:15:38;0.00;99.90
39219;DHT22;24934;52.752;6.964;2022-11-21T00:18:04;0.10;99.90
39219;DHT22;24934;52.752;6.964;2022-11-21T00:20:30;0.10;99.90
39219;DHT22;24934;52.752;6.964;2022-11-21T00:22:56;0.10;99.90
39219;DHT22;24934;52.752;6.964;2022-11-21T00:25:22;0.20;99.90
39219;DHT22;24934;52.752;6.964;2022-11-21T00:27:47;0.20;99.90
39219;DHT22;24934;52.752;6.964;2022-11-21T00:30:13;0.10;99.90
39219;DHT22;24934;52.752;6.964;2022-11-21T00:32:39;0.10;99.90
39219;DHT22;24934;52.752;6.964;2022-11-21T00:35:05;0.20;99.90
39219;DHT22;24934;52.752;6.964;2022-11-21T00:37:32;0.20;99.90
39219;DHT22;24934;52.752;6.964;2022-11-21T00:39:57;0.20;99.90
39219;DHT22;24934;52.752;6.964;2022-11-21T00:42:24;0.20;99.90
39219;DHT22;24934;52.752;6.964;2022-11-21T00:44:50;0.20;99.90
39219;DHT22;24934;52.752;6.964;2022-11-21T00:47:15;0.20;99.90
39219;DHT22;24934;52.752;6.964;2022-11-21T00:49:41;0.20;99.90
39219;DHT22;24934;52.752;6.964;2022-11-21T00:52:07;0.20;99.90
39219;DHT22;24934;52.752;6.964;2022-11-21T00:54:32;0.20;99.90
39219;DHT22;24934;52.752;6.964;2022-11-21T00:56:58;0.20;99.90
39219;DHT22;24934;52.752;6.964;2022-11-21T00:59:24;0.20;99.90
39219;DHT22;24934;52.752;6.964;2022-11-21T01:01:52;0.30;99.90
39219;DHT22;24934;52.752;6.964;2022-11-21T01:04:18;0.30;99.90
39219;DHT22;24934;52.752;6.964;2022-11-21T01:06:43;0.30;99.90
39219;DHT22;24934;52.752;6.964;2022-11-21T01:09:09;0.30;99.90
39219;DHT22;24934;52.752;6.964;2022-11-21T01:11:35;0.30;99.90
39219;DHT22;24934;52.752;6.964;2022-11-21T01:14:01;0.30;99.90
39219;DHT22;24934;52.752;6.964;2022-11-21T01:16:27;0.20;99.90
39219;DHT22;24934;52.752;6.964;2022-11-21T01:18:53;0.20;99.90
39219;DHT22;24934;52.752;6.964;2022-11-21T01:21:25;0.20;99.90
39219;DHT22;24934;52.752;6.964;2022-11-21T01:23:52;0.20;99.90
39219;DHT22;24934;52.752;6.964;2022-11-21T01:26:23;0.20;99.90
39219;DHT22;24934;52.752;6.964;2022-11-21T01:28:49;0.10;99.90
39219;DHT22;24934;52.752;6.964;2022-11-21T01:31:17;0.10;99.90
39219;DHT22;24934;52.752;6.964;2022-11-21T01:33:44;0.10;99.90
39219;DHT22;24934;52.752;6.964;2022-11-21T01:38:46;0.10;99.90
39219;DHT22;24934;52.752;6.964;2022-11-21T01:41:15;0.10;99.90
39219;DHT22;24934;52.752;6.964;2022-11-21T01:43:41;0.10;99.90
39219;DHT22;24934;52.752;6.964;2022-11-21T01:48:34;0.20;99.90
39219;DHT22;24934;52.752;6.964;2022-11-21T01:51:06;0.20;99.90
39219;DHT22;24934;52.752;6.964;2022-11-21T01:53:35;0.20;99.90
39219;DHT22;24934;52.752;6.964;2022-11-21T01:56:01;0.20;99.90
39219;DHT22;24934;52.752;6.964;2022-11-21T01:58:28;0.20;99.90
39219;DHT22;24934;52.752;6.964;2022-11-21T02:00:54;0.20;99.90
39219;DHT22;24934;52.752;6.964;2022-11-21T02:03:22;0.30;99.90
39219;DHT22;24934;52.752;6.964;2022-11-21T02:05:51;0.20;99.90
39219;DHT22;24934;52.752;6.964;2022-11-21T02:08:19;0.20;99.90
39219;DHT22;24934;52.752;6.964;2022-11-21T02:13:31;0.20;99.90
39219;DHT22;24934;52.752;6.964;2022-11-21T02:15:57;0.20;99.90
39219;DHT22;24934;52.752;6.964;2022-11-21T02:18:23;0.20;99.90
39219;DHT22;24934;52.752;6.964;2022-11-21T02:20:52;0.20;99.90
39219;DHT22;24934;52.752;6.964;2022-11-21T02:23:33;0.20;99.90
39219;DHT22;24934;52.752;6.964;2022-11-21T02:26:01;0.10;99.90
39219;DHT22;24934;52.752;6.964;2022-11-21T02:28:27;0.10;99.90
39219;DHT22;24934;52.752;6.964;2022-11-21T02:30:53;0.00;99.90
39219;DHT22;24934;52.752;6.964;2022-11-21T02:33:19;-0.10;99.90
39219;DHT22;24934;52.752;6.964;2022-11-21T02:35:55;-0.30;99.90
39219;DHT22;24934;52.752;6.964;2022-11-21T02:38:29;-0.50;99.90
39219;DHT22;24934;52.752;6.964;2022-11-21T02:41:00;-0.70;99.90
39219;DHT22;24934;52.752;6.964;2022-11-21T02:43:32;-0.80;99.90
39219;DHT22;24934;52.752;6.964;2022-11-21T02:46:00;-1.00;99.90
39219;DHT22;24934;52.752;6.964;2022-11-21T02:48:26;-1.10;99.90
39219;DHT22;24934;52.752;6.964;2022-11-21T02:50:51;-1.20;99.90
39219;DHT22;24934;52.752;6.964;2022-11-21T02:53:18;-1.40;99.90
39219;DHT22;24934;52.752;6.964;2022-11-21T02:55:43;-1.50;99.90
39219;DHT22;24934;52.752;6.964;2022-11-21T02:58:10;-1.50;99.90
39219;DHT22;24934;52.752;6.964;2022-11-21T03:00:37;-1.70;99.90
39219;DHT22;24934;52.752;6.964;2022-11-21T03:03:03;-1.80;99.90
39219;DHT22;24934;52.752;6.964;2022-11-21T03:05:29;-1.80;99.90
39219;DHT22;24934;52.752;6.964;2022-11-21T03:07:55;-1.90;99.90
39219;DHT22;24934;52.752;6.964;2022-11-21T03:10:23;-2.00;99.90
39219;DHT22;24934;52.752;6.964;2022-11-21T03:12:48;-2.10;99.90
39219;DHT22;24934;52.752;6.964;2022-11-21T03:15:14;-2.20;99.90
39219;DHT22;24934;52.752;6.964;2022-11-21T03:17:41;-2.30;99.90
39219;DHT22;24934;52.752;6.964;2022-11-21T03:20:08;-2.30;99.90
39219;DHT22;24934;52.752;6.964;2022-11-21T03:22:34;-2.40;99.90
39219;DHT22;24934;52.752;6.964;2022-11-21T03:24:59;-2.50;99.90
39219;DHT22;24934;52.752;6.964;2022-11-21T03:27:25;-2.50;99.90
39219;DHT22;24934;52.752;6.964;2022-11-21T03:29:50;-2.60;99.90
39219;DHT22;24934;52.752;6.964;2022-11-21T03:32:16;-2.50;99.90
39219;DHT22;24934;52.752;6.964;2022-11-21T03:34:43;-2.40;99.90
39219;DHT22;24934;52.752;6.964;2022-11-21T03:37:08;-2.50;99.90
39219;DHT22;24934;52.752;6.964;2022-11-21T03:39:34;-2.50;99.90
39219;DHT22;24934;52.752;6.964;2022-11-21T03:41:59;-2.50;99.90
39219;DHT22;24934;52.752;6.964;2022-11-21T03:44:25;-2.50;99.90
39219;DHT22;24934;52.752;6.964;2022-11-21T03:46:54;-2.60;99.90
39219;DHT22;24934;52.752;6.964;2022-11-21T03:49:19;-2.60;99.90
39219;DHT22;24934;52.752;6.964;2022-11-21T03:51:45;-2.60;99.90
39219;DHT22;24934;52.752;6.964;2022-11-21T03:54:11;-2.60;99.90
39219;DHT22;24934;52.752;6.964;2022-11-21T03:56:37;-2.60;99.90
39219;DHT22;24934;52.752;6.964;2022-11-21T03:59:04;-2.70;99.90
39219;DHT22;24934;52.752;6.964;2022-11-21T04:01:30;-2.70;99.90
39219;DHT22;24934;52.752;6.964;2022-11-21T04:03:58;-2.80;99.90
39219;DHT22;24934;52.752;6.964;2022-11-21T04:06:24;-2.80;99.90
39219;DHT22;24934;52.752;6.964;2022-11-21T04:08:50;-2.90;99.90
39219;DHT22;24934;52.752;6.964;2022-11-21T04:11:19;-2.90;99.90
39219;DHT22;24934;52.752;6.964;2022-11-21T04:13:47;-2.90;99.90
39219;DHT22;24934;52.752;6.964;2022-11-21T04:16:13;-2.80;99.90
39219;DHT22;24934;52.752;6.964;2022-11-21T04:18:38;-2.90;99.90
39219;DHT22;24934;52.752;6.964;2022-11-21T04:21:06;-2.90;99.90
39219;DHT22;24934;52.752;6.964;2022-11-21T04:23:32;-2.90;99.90
39219;DHT22;24934;52.752;6.964;2022-11-21T04:25:58;-3.00;99.90
39219;DHT22;24934;52.752;6.964;2022-11-21T04:28:24;-3.00;99.90
39219;DHT22;24934;52.752;6.964;2022-11-21T04:30:50;-3.00;99.90
39219;DHT22;24934;52.752;6.964;2022-11-21T04:33:17;-3.00;99.90
39219;DHT22;24934;52.752;6.964;2022-11-21T04:35:43;-3.10;99.90
39219;DHT22;24934;52.752;6.964;2022-11-21T04:38:10;-3.10;99.90
39219;DHT22;24934;52.752;6.964;2022-11-21T04:40:35;-3.20;99.90
39219;DHT22;24934;52.752;6.964;2022-11-21T04:43:01;-3.20;99.90
39219;DHT22;24934;52.752;6.964;2022-11-21T04:45:27;-3.20;99.90
39219;DHT22;24934;52.752;6.964;2022-11-21T04:47:52;-3.20;99.90
39219;DHT22;24934;52.752;6.964;2022-11-21T04:50:18;-3.20;99.90
39219;DHT22;24934;52.752;6.964;2022-11-21T04:52:55;-3.20;99.90
39219;DHT22;24934;52.752;6.964;2022-11-21T04:55:23;-3.10;99.90
39219;DHT22;24934;52.752;6.964;2022-11-21T04:57:50;-3.20;99.90
39219;DHT22;24934;52.752;6.964;2022-11-21T05:00:16;-3.10;99.90
39219;DHT22;24934;52.752;6.964;2022-11-21T05:02:43;-3.20;99.90
39219;DHT22;24934;52.752;6.964;2022-11-21T05:05:08;-3.20;99.90
39219;DHT22;24934;52.752;6.964;2022-11-21T05:07:34;-3.20;99.90
39219;DHT22;24934;52.752;6.964;2022-11-21T05:10:03;-3.20;99.90
39219;DHT22;24934;52.752;6.964;2022-11-21T05:12:29;-3.20;99.90
39219;DHT22;24934;52.752;6.964;2022-11-21T05:15:13;-3.10;99.90
39219;DHT22;24934;52.752;6.964;2022-11-21T05:17:38;-3.10;99.90
39219;DHT22;24934;52.752;6.964;2022-11-21T05:20:04;-3.00;99.90
39219;DHT22;24934;52.752;6.964;2022-11-21T05:22:30;-3.10;99.90
39219;DHT22;24934;52.752;6.964;2022-11-21T05:24:56;-3.00;99.90
39219;DHT22;24934;52.752;6.964;2022-11-21T05:27:21;-2.80;99.90
39219;DHT22;24934;52.752;6.964;2022-11-21T05:29:47;-2.60;99.90
39219;DHT22;24934;52.752;6.964;2022-11-21T05:32:12;-2.60;99.90
39219;DHT22;24934;52.752;6.964;2022-11-21T05:34:38;-2.70;99.90
39219;DHT22;24934;52.752;6.964;2022-11-21T05:37:04;-2.80;99.90
39219;DHT22;24934;52.752;6.964;2022-11-21T05:39:29;-3.00;99.90
39219;DHT22;24934;52.752;6.964;2022-11-21T05:41:55;-3.00;99.90
39219;DHT22;24934;52.752;6.964;2022-11-21T05:44:20;-3.10;99.90
39219;DHT22;24934;52.752;6.964;2022-11-21T05:46:46;-3.20;99.90
39219;DHT22;24934;52.752;6.964;2022-11-21T05:49:12;-3.10;99.90
39219;DHT22;24934;52.752;6.964;2022-11-21T05:51:38;-3.20;99.90
39219;DHT22;24934;52.752;6.964;2022-11-21T05:54:04;-3.30;99.90
39219;DHT22;24934;52.752;6.964;2022-11-21T05:56:30;-3.10;99.90
39219;DHT22;24934;52.752;6.964;2022-11-21T05:58:56;-2.90;99.90
39219;DHT22;24934;52.752;6.964;2022-11-21T06:01:22;-2.90;99.90
39219;DHT22;24934;52.752;6.964;2022-11-21T06:04:08;-3.00;99.90
39219;DHT22;24934;52.752;6.964;2022-11-21T06:06:35;-3.00;99.90
39219;DHT22;24934;52.752;6.964;2022-11-21T06:09:03;-3.00;99.90
39219;DHT22;24934;52.752;6.964;2022-11-21T06:11:29;-3.00;99.90
39219;DHT22;24934;52.752;6.964;2022-11-21T06:13:55;-3.10;99.90
39219;DHT22;24934;52.752;6.964;2022-11-21T06:16:21;-3.10;99.90
39219;DHT22;24934;52.752;6.964;2022-11-21T06:18:49;-3.00;99.90
39219;DHT22;24934;52.752;6.964;2022-11-21T06:21:19;-3.00;99.90
39219;DHT22;24934;52.752;6.964;2022-11-21T06:23:45;-2.90;99.90
39219;DHT22;24934;52.752;6.964;2022-11-21T06:26:15;-3.00;99.90
39219;DHT22;24934;52.752;6.964;2022-11-21T06:28:42;-2.90;99.90
39219;DHT22;24934;52.752;6.964;2022-11-21T06:31:11;-3.00;99.90
39219;DHT22;24934;52.752;6.964;2022-11-21T06:33:38;-3.00;99.90
39219;DHT22;24934;52.752;6.964;2022-11-21T06:36:05;-3.10;99.90
39219;DHT22;24934;52.752;6.964;2022-11-21T06:38:31;-3.00;99.90
39219;DHT22;24934;52.752;6.964;2022-11-21T06:41:04;-3.00;99.90
39219;DHT22;24934;52.752;6.964;2022-11-21T06:43:30;-2.90;99.90
39219;DHT22;24934;52.752;6.964;2022-11-21T06:45:55;-2.90;99.90
39219;DHT22;24934;52.752;6.964;2022-11-21T06:48:21;-3.00;99.90
39219;DHT22;24934;52.752;6.964;2022-11-21T06:50:47;-3.00;99.90
39219;DHT22;24934;52.752;6.964;2022-11-21T06:53:13;-2.90;99.90
39219;DHT22;24934;52.752;6.964;2022-11-21T06:55:41;-2.80;99.90
39219;DHT22;24934;52.752;6.964;2022-11-21T06:58:06;-2.70;99.90
39219;DHT22;24934;52.752;6.964;2022-11-21T07:00:32;-2.70;99.90
39219;DHT22;24934;52.752;6.964;2022-11-21T07:03:04;-2.70;99.90
39219;DHT22;24934;52.752;6.964;2022-11-21T07:05:29;-2.70;99.90
39219;DHT22;24934;52.752;6.964;2022-11-21T07:08:02;-2.70;99.90
39219;DHT22;24934;52.752;6.964;2022-11-21T07:10:29;-2.60;99.90
39219;DHT22;24934;52.752;6.964;2022-11-21T07:12:58;-2.60;99.90
39219;DHT22;24934;52.752;6.964;2022-11-21T07:15:44;-2.60;99.90
39219;DHT22;24934;52.752;6.964;2022-11-21T07:18:11;-2.50;99.90
39219;DHT22;24934;52.752;6.964;2022-11-21T07:20:37;-2.50;99.90
39219;DHT22;24934;52.752;6.964;2022-11-21T07:23:03;-2.40;99.90
39219;DHT22;24934;52.752;6.964;2022-11-21T07:25:29;-2.40;99.90
39219;DHT22;24934;52.752;6.964;2022-11-21T07:28:04;-2.40;99.90
39219;DHT22;24934;52.752;6.964;2022-11-21T07:30:30;-2.30;99.90
39219;DHT22;24934;52.752;6.964;2022-11-21T07:33:00;-2.30;99.90
39219;DHT22;24934;52.752;6.964;2022-11-21T07:35:27;-2.20;99.90
39219;DHT22;24934;52.752;6.964;2022-11-21T07:37:52;-2.20;99.90
39219;DHT22;24934;52.752;6.964;2022-11-21T07:40:19;-2.20;99.90
39219;DHT22;24934;52.752;6.964;2022-11-21T07:42:45;-2.00;99.90
39219;DHT22;24934;52.752;6.964;2022-11-21T07:45:11;-1.80;99.90
39219;DHT22;24934;52.752;6.964;2022-11-21T07:47:37;-1.80;99.90
39219;DHT22;24934;52.752;6.964;2022-11-21T07:50:04;-1.70;99.90
39219;DHT22;24934;52.752;6.964;2022-11-21T07:52:30;-1.70;99.90
39219;DHT22;24934;52.752;6.964;2022-11-21T07:54:56;-1.80;99.90
39219;DHT22;24934;52.752;6.964;2022-11-21T07:57:24;-1.80;99.90
39219;DHT22;24934;52.752;6.964;2022-11-21T07:59:53;-1.80;99.90
39219;DHT22;24934;52.752;6.964;2022-11-21T08:02:24;-1.90;99.90
39219;DHT22;24934;52.752;6.964;2022-11-21T08:04:50;-1.90;99.90
39219;DHT22;24934;52.752;6.964;2022-11-21T08:07:17;-1.90;99.90
39219;DHT22;24934;52.752;6.964;2022-11-21T08:09:43;-1.90;99.90
39219;DHT22;24934;52.752;6.964;2022-11-21T08:12:09;-1.80;99.90
39219;DHT22;24934;52.752;6.964;2022-11-21T08:14:35;-1.80;99.90
39219;DHT22;24934;52.752;6.964;2022-11-21T08:17:02;-1.70;99.90
39219;DHT22;24934;52.752;6.964;2022-11-21T08:19:28;-1.60;99.90
39219;DHT22;24934;52.752;6.964;2022-11-21T08:21:53;-1.60;99.90
39219;DHT22;24934;52.752;6.964;2022-11-21T08:24:19;-1.50;99.90
39219;DHT22;24934;52.752;6.964;2022-11-21T08:26:45;-1.40;99.90
39219;DHT22;24934;52.752;6.964;2022-11-21T08:29:12;-1.40;99.90
39219;DHT22;24934;52.752;6.964;2022-11-21T08:31:40;-1.30;99.90
39219;DHT22;24934;52.752;6.964;2022-11-21T08:34:06;-1.30;99.90
39219;DHT22;24934;52.752;6.964;2022-11-21T08:36:31;-1.20;99.90
39219;DHT22;24934;52.752;6.964;2022-11-21T08:38:57;-0.90;99.90
39219;DHT22;24934;52.752;6.964;2022-11-21T08:41:23;-0.70;99.90
39219;DHT22;24934;52.752;6.964;2022-11-21T08:44:07;-0.50;99.90
39219;DHT22;24934;52.752;6.964;2022-11-21T08:46:34;-0.40;99.90
39219;DHT22;24934;52.752;6.964;2022-11-21T08:49:02;-0.30;99.90
39219;DHT22;24934;52.752;6.964;2022-11-21T08:51:28;-0.30;99.90
39219;DHT22;24934;52.752;6.964;2022-11-21T08:53:54;-0.30;99.90
39219;DHT22;24934;52.752;6.964;2022-11-21T08:56:19;-0.30;99.90
39219;DHT22;24934;52.752;6.964;2022-11-21T08:58:45;-0.20;99.90
39219;DHT22;24934;52.752;6.964;2022-11-21T09:01:10;-0.20;99.90
39219;DHT22;24934;52.752;6.964;2022-11-21T09:03:36;-0.10;99.90
39219;DHT22;24934;52.752;6.964;2022-11-21T09:06:02;0.00;99.90
39219;DHT22;24934;52.752;6.964;2022-11-21T09:08:33;0.00;99.90
39219;DHT22;24934;52.752;6.964;2022-11-21T09:11:05;0.00;99.90
39219;DHT22;24934;52.752;6.964;2022-11-21T09:13:35;0.10;99.90
39219;DHT22;24934;52.752;6.964;2022-11-21T09:16:10;0.10;99.90
39219;DHT22;24934;52.752;6.964;2022-11-21T09:18:58;0.10;99.90
39219;DHT22;24934;52.752;6.964;2022-11-21T09:24:26;0.30;99.90
39219;DHT22;24934;52.752;6.964;2022-11-21T09:27:00;0.40;99.90
39219;DHT22;24934;52.752;6.964;2022-11-21T09:30:04;0.50;99.90
39219;DHT22;24934;52.752;6.964;2022-11-21T09:32:48;0.60;99.90
39219;DHT22;24934;52.752;6.964;2022-11-21T09:35:22;0.70;99.90
39219;DHT22;24934;52.752;6.964;2022-11-21T09:37:50;0.70;99.90
39219;DHT22;24934;52.752;6.964;2022-11-21T09:40:22;0.70;99.90
39219;DHT22;24934;52.752;6.964;2022-11-21T09:43:30;0.70;99.90
39219;DHT22;24934;52.752;6.964;2022-11-21T09:46:16;0.80;99.90
39219;DHT22;24934;52.752;6.964;2022-11-21T09:48:57;0.70;99.90
39219;DHT22;24934;52.752;6.964;2022-11-21T09:51:27;0.70;99.90
39219;DHT22;24934;52.752;6.964;2022-11-21T09:54:00;0.60;99.90
39219;DHT22;24934;52.752;6.964;2022-11-21T09:56:33;0.60;99.90
39219;DHT22;24934;52.752;6.964;2022-11-21T10:01:56;0.60;99.90
39219;DHT22;24934;52.752;6.964;2022-11-21T10:04:26;0.70;99.90
39219;DHT22;24934;52.752;6.964;2022-11-21T10:18:30;0.70;99.90
39219;DHT22;24934;52.752;6.964;2022-11-21T10:31:45;0.80;99.90
39219;DHT22;24934;52.752;6.964;2022-11-21T10:34:21;0.80;99.90
39219;DHT22;24934;52.752;6.964;2022-11-21T10:36:53;0.90;99.90
39219;DHT22;24934;52.752;6.964;2022-11-21T10:42:14;0.90;99.90
39219;DHT22;24934;52.752;6.964;2022-11-21T10:44:42;1.00;99.90
39219;DHT22;24934;52.752;6.964;2022-11-21T10:47:32;1.00;99.90
39219;DHT22;24934;52.752;6.964;2022-11-21T10:52:39;1.10;99.90
39219;DHT22;24934;52.752;6.964;2022-11-21T10:55:10;1.30;99.90
39219;DHT22;24934;52.752;6.964;2022-11-21T10:57:50;1.50;99.90
39219;DHT22;24934;52.752;6.964;2022-11-21T11:02:58;1.70;99.90
39219;DHT22;24934;52.752;6.964;2022-11-21T11:05:28;1.80;99.90
39219;DHT22;24934;52.752;6.964;2022-11-21T11:08:04;1.90;99.90
39219;DHT22;24934;52.752;6.964;2022-11-21T11:10:33;2.00;99.90
39219;DHT22;24934;52.752;6.964;2022-11-21T11:13:00;1.90;99.90
39219;DHT22;24934;52.752;6.964;2022-11-21T11:16:04;1.90;99.90
39219;DHT22;24934;52.752;6.964;2022-11-21T11:18:33;2.00;99.90
39219;DHT22;24934;52.752;6.964;2022-11-21T11:21:26;2.20;99.90
39219;DHT22;24934;52.752;6.964;2022-11-21T11:23:53;2.30;99.90
39219;DHT22;24934;52.752;6.964;2022-11-21T11:26:25;2.50;99.90
39219;DHT22;24934;52.752;6.964;2022-11-21T11:28:52;2.50;99.90
39219;DHT22;24934;52.752;6.964;2022-11-21T11:31:20;2.50;99.90
39219;DHT22;24934;52.752;6.964;2022-11-21T11:33:51;2.50;99.90
39219;DHT22;24934;52.752;6.964;2022-11-21T11:38:56;2.60;99.90
39219;DHT22;24934;52.752;6.964;2022-11-21T11:41:49;2.60;99.90
39219;DHT22;24934;52.752;6.964;2022-11-21T11:45:06;2.70;99.90
39219;DHT22;24934;52.752;6.964;2022-11-21T11:48:08;2.80;99.90
39219;DHT22;24934;52.752;6.964;2022-11-21T11:50:43;2.90;99.90
39219;DHT22;24934;52.752;6.964;2022-11-21T11:53:17;2.90;99.90
39219;DHT22;24934;52.752;6.964;2022-11-21T11:55:56;2.80;99.90
39219;DHT22;24934;52.752;6.964;2022-11-21T12:03:43;2.90;99.90
39219;DHT22;24934;52.752;6.964;2022-11-21T12:06:16;2.90;99.90
39219;DHT22;24934;52.752;6.964;2022-11-21T12:08:50;3.00;99.90
39219;DHT22;24934;52.752;6.964;2022-11-21T12:17:46;3.00;99.90
39219;DHT22;24934;52.752;6.964;2022-11-21T12:20:19;3.00;99.90
39219;DHT22;24934;52.752;6.964;2022-11-21T12:22:47;3.00;99.90
39219;DHT22;24934;52.752;6.964;2022-11-21T12:25:14;3.00;99.90
39219;DHT22;24934;52.752;6.964;2022-11-21T12:27:41;3.00;99.90
39219;DHT22;24934;52.752;6.964;2022-11-21T12:33:04;3.00;99.90
39219;DHT22;24934;52.752;6.964;2022-11-21T12:39:17;3.00;99.90
39219;DHT22;24934;52.752;6.964;2022-11-21T12:53:48;3.30;99.90
39219;DHT22;24934;52.752;6.964;2022-11-21T12:56:45;3.40;99.90
39219;DHT22;24934;52.752;6.964;2022-11-21T12:59:13;3.40;99.90
39219;DHT22;24934;52.752;6.964;2022-11-21T13:04:45;3.20;99.90
39219;DHT22;24934;52.752;6.964;2022-11-21T13:07:14;3.20;99.90
39219;DHT22;24934;52.752;6.964;2022-11-21T13:09:42;3.10;99.90
39219;DHT22;24934;52.752;6.964;2022-11-21T13:15:40;2.90;99.90
39219;DHT22;24934;52.752;6.964;2022-11-21T13:18:17;2.90;99.90
39219;DHT22;24934;52.752;6.964;2022-11-21T13:20:49;2.90;99.90
39219;DHT22;24934;52.752;6.964;2022-11-21T13:23:37;2.90;99.90
39219;DHT22;24934;52.752;6.964;2022-11-21T13:28:51;2.90;99.90
39219;DHT22;24934;52.752;6.964;2022-11-21T13:31:34;2.90;99.90
39219;DHT22;24934;52.752;6.964;2022-11-21T13:34:03;2.90;99.90
39219;DHT22;24934;52.752;6.964;2022-11-21T13:49:33;2.70;99.90
39219;DHT22;24934;52.752;6.964;2022-11-21T13:58:10;2.70;99.90
39219;DHT22;24934;52.752;6.964;2022-11-21T14:06:38;2.70;99.90
39219;DHT22;24934;52.752;6.964;2022-11-21T14:11:47;2.70;99.90
39219;DHT22;24934;52.752;6.964;2022-11-21T14:14:31;2.60;99.90
39219;DHT22;24934;52.752;6.964;2022-11-21T14:19:45;2.60;99.90
39219;DHT22;24934;52.752;6.964;2022-11-21T14:22:27;2.60;99.90
39219;DHT22;24934;52.752;6.964;2022-11-21T14:24:56;2.60;99.90
39219;DHT22;24934;52.752;6.964;2022-11-21T14:27:31;2.50;99.90
39219;DHT22;24934;52.752;6.964;2022-11-21T14:30:00;2.50;99.90
39219;DHT22;24934;52.752;6.964;2022-11-21T14:32:30;2.50;99.90
39219;DHT22;24934;52.752;6.964;2022-11-21T14:35:10;2.40;99.90
39219;DHT22;24934;52.752;6.964;2022-11-21T14:37:42;2.50;99.90
39219;DHT22;24934;52.752;6.964;2022-11-21T14:40:12;2.40;99.90
39219;DHT22;24934;52.752;6.964;2022-11-21T14:42:40;2.50;99.90
39219;DHT22;24934;52.752;6.964;2022-11-21T14:45:17;2.40;99.90
39219;DHT22;24934;52.752;6.964;2022-11-21T14:47:53;2.50;99.90
39219;DHT22;24934;52.752;6.964;2022-11-21T14:50:26;2.50;99.90
39219;DHT22;24934;52.752;6.964;2022-11-21T14:52:53;2.40;99.90
39219;DHT22;24934;52.752;6.964;2022-11-21T14:55:29;2.40;99.90
39219;DHT22;24934;52.752;6.964;2022-11-21T14:57:58;2.40;99.90
39219;DHT22;24934;52.752;6.964;2022-11-21T15:00:26;2.40;99.90
39219;DHT22;24934;52.752;6.964;2022-11-21T15:02:54;2.40;99.90
39219;DHT22;24934;52.752;6.964;2022-11-21T15:05:21;2.40;99.90
39219;DHT22;24934;52.752;6.964;2022-11-21T15:07:56;2.40;99.90
39219;DHT22;24934;52.752;6.964;2022-11-21T15:10:29;2.30;99.90
39219;DHT22;24934;52.752;6.964;2022-11-21T15:13:02;2.30;99.90
39219;DHT22;24934;52.752;6.964;2022-11-21T15:15:34;2.30;99.90
39219;DHT22;24934;52.752;6.964;2022-11-21T15:18:21;2.30;99.90
39219;DHT22;24934;52.752;6.964;2022-11-21T15:20:48;2.30;99.90
39219;DHT22;24934;52.752;6.964;2022-11-21T15:23:37;2.40;99.90
39219;DHT22;24934;52.752;6.964;2022-11-21T15:26:05;2.30;99.90
39219;DHT22;24934;52.752;6.964;2022-11-21T15:28:31;2.30;99.90
39219;DHT22;24934;52.752;6.964;2022-11-21T15:31:19;2.30;99.90
39219;DHT22;24934;52.752;6.964;2022-11-21T15:34:02;2.30;99.90
39219;DHT22;24934;52.752;6.964;2022-11-21T15:36:29;2.40;99.90
39219;DHT22;24934;52.752;6.964;2022-11-21T15:39:05;2.40;99.90
39219;DHT22;24934;52.752;6.964;2022-11-21T15:41:37;2.40;99.90
39219;DHT22;24934;52.752;6.964;2022-11-21T15:46:31;2.40;99.90
39219;DHT22;24934;52.752;6.964;2022-11-21T15:49:04;2.40;99.90
39219;DHT22;24934;52.752;6.964;2022-11-21T15:51:41;2.40;99.90
39219;DHT22;24934;52.752;6.964;2022-11-21T15:54:10;2.40;99.90
39219;DHT22;24934;52.752;6.964;2022-11-21T15:56:37;2.50;99.90
39219;DHT22;24934;52.752;6.964;2022-11-21T15:59:03;2.50;99.90
39219;DHT22;24934;52.752;6.964;2022-11-21T16:01:29;2.50;99.90
39219;DHT22;24934;52.752;6.964;2022-11-21T16:03:57;2.50;99.90
39219;DHT22;24934;52.752;6.964;2022-11-21T16:06:23;2.50;99.90
39219;DHT22;24934;52.752;6.964;2022-11-21T16:08:50;2.50;99.90
39219;DHT22;24934;52.752;6.964;2022-11-21T16:11:28;2.50;99.90
39219;DHT22;24934;52.752;6.964;2022-11-21T16:13:56;2.60;99.90
39219;DHT22;24934;52.752;6.964;2022-11-21T16:16:24;2.60;99.90
39219;DHT22;24934;52.752;6.964;2022-11-21T16:18:50;2.60;99.90
39219;DHT22;24934;52.752;6.964;2022-11-21T16:21:16;2.60;99.90
39219;DHT22;24934;52.752;6.964;2022-11-21T16:23:42;2.50;99.90
39219;DHT22;24934;52.752;6.964;2022-11-21T16:26:09;2.50;99.90
39219;DHT22;24934;52.752;6.964;2022-11-21T16:28:35;2.50;99.90
39219;DHT22;24934;52.752;6.964;2022-11-21T16:31:01;2.50;99.90
39219;DHT22;24934;52.752;6.964;2022-11-21T16:33:28;2.50;99.90
39219;DHT22;24934;52.752;6.964;2022-11-21T16:35:57;2.50;99.90
39219;DHT22;24934;52.752;6.964;2022-11-21T16:38:24;2.50;99.90
39219;DHT22;24934;52.752;6.964;2022-11-21T16:41:01;2.50;99.90
39219;DHT22;24934;52.752;6.964;2022-11-21T16:43:28;2.40;99.90
39219;DHT22;24934;52.752;6.964;2022-11-21T16:45:54;2.40;99.90
39219;DHT22;24934;52.752;6.964;2022-11-21T16:48:20;2.40;99.90
39219;DHT22;24934;52.752;6.964;2022-11-21T16:50:48;2.40;99.90
39219;DHT22;24934;52.752;6.964;2022-11-21T16:53:14;2.40;99.90
39219;DHT22;24934;52.752;6.964;2022-11-21T16:55:41;2.40;99.90
39219;DHT22;24934;52.752;6.964;2022-11-21T16:58:07;2.40;99.90
39219;DHT22;24934;52.752;6.964;2022-11-21T17:00:32;2.40;99.90
39219;DHT22;24934;52.752;6.964;2022-11-21T17:02:59;2.40;99.90
39219;DHT22;24934;52.752;6.964;2022-11-21T17:05:25;2.40;99.90
39219;DHT22;24934;52.752;6.964;2022-11-21T17:07:50;2.30;99.90
39219;DHT22;24934;52.752;6.964;2022-11-21T17:10:16;2.30;99.90
39219;DHT22;24934;52.752;6.964;2022-11-21T17:12:45;2.30;99.90
39219;DHT22;24934;52.752;6.964;2022-11-21T17:15:12;2.30;99.90
39219;DHT22;24934;52.752;6.964;2022-11-21T17:17:38;2.30;99.90
39219;DHT22;24934;52.752;6.964;2022-11-21T17:20:06;2.20;99.90
39219;DHT22;24934;52.752;6.964;2022-11-21T17:22:32;2.30;99.90
39219;DHT22;24934;52.752;6.964;2022-11-21T17:24:57;2.30;99.90
39219;DHT22;24934;52.752;6.964;2022-11-21T17:27:23;2.30;99.90
39219;DHT22;24934;52.752;6.964;2022-11-21T17:29:49;2.30;99.90
39219;DHT22;24934;52.752;6.964;2022-11-21T17:32:15;2.30;99.90
39219;DHT22;24934;52.752;6.964;2022-11-21T17:34:41;2.30;99.90
39219;DHT22;24934;52.752;6.964;2022-11-21T17:37:07;2.30;99.90
39219;DHT22;24934;52.752;6.964;2022-11-21T17:39:33;2.40;99.90
39219;DHT22;24934;52.752;6.964;2022-11-21T17:41:59;2.40;99.90
39219;DHT22;24934;52.752;6.964;2022-11-21T17:44:26;2.40;99.90
39219;DHT22;24934;52.752;6.964;2022-11-21T17:46:52;2.40;99.90
39219;DHT22;24934;52.752;6.964;2022-11-21T17:49:17;2.40;99.90
39219;DHT22;24934;52.752;6.964;2022-11-21T17:51:43;2.40;99.90